PWSweather.com
Personal Weather Stations
Station Observations
GIRWX1
Presovsky Kraj, GiraltovceSK

Presovsky KrajGiraltovceSK

Lat: 49.118, Lon: 21.52

Elevation: 630

Station Type: wh1080

http://www.meteogiraltovce.wz.cz/

Latest ConditionsUpdated 4:30:00 AM GMT+01:01 Monday, May 20, 2019
Currently Today's Max Today's Min Today's Average
Temperature 58.6°F14.8°C 59.0°F15.0°C 54.7°F12.6°C 56.7°F13.7°C
Dew Point 56.8°F13.8°C 57.6°F14.2°C 52.3°F11.3°C 54.1°F12.3°C
Winds 3.3 mph NNE5.3 kmh NNE 5.7 mph -9.2 kmh - - 1.5 mph 2.4 kmh
Wind Gusts 6.0 mph9.7 kmh 9.8 mph15.8 kmh - -
Humidity 94% 97% 88% 91%
Pressure 29.65 in1004.1 mb 29.68 in1005.1 mb 29.64 in1003.7 mb -
Hour Temp Dew Point Humidity Winds Wind Gusts Pressure Precip Precip Rate Daily Precip Total
04:30 AM 58.6°F14.8°C 56.8°F13.8°C 94% 3.3 mph NNE5.3 kmh NNE 6.0 mph9.7 kmh 29.65 in1004.1 mb 0.00 in0.0 mm 0.00 in0.0 mm 0.00 in0.0 mm
04:25 AM 58.8°F14.9°C 57.4°F14.1°C 95% 2.8 mph NE4.5 kmh NE 4.5 mph7.2 kmh 29.65 in1004.1 mb 0.00 in0.0 mm 0.00 in0.0 mm 0.00 in0.0 mm
04:20 AM 58.7°F14.8°C 57.6°F14.2°C 96% 3.9 mph NE6.3 kmh NE 5.4 mph8.7 kmh 29.65 in1004.1 mb 0.00 in0.0 mm 0.00 in0.0 mm 0.00 in0.0 mm
04:15 AM 58.4°F14.7°C 57.4°F14.1°C 97% 5.4 mph SW8.7 kmh SW 9.8 mph15.8 kmh 29.65 in1004.1 mb 0.00 in0.0 mm 0.00 in0.0 mm 0.00 in0.0 mm
04:10 AM 57.5°F14.2°C 56.3°F13.5°C 96% 5.7 mph WSW9.2 kmh WSW 9.8 mph15.8 kmh 29.64 in1003.7 mb 0.00 in0.0 mm 0.00 in0.0 mm 0.00 in0.0 mm
04:05 AM 56.7°F13.7°C 55.2°F12.9°C 95% 2.2 mph S3.5 kmh S 4.5 mph7.2 kmh 29.65 in1004.1 mb 0.00 in0.0 mm 0.00 in0.0 mm 0.00 in0.0 mm
04:00 AM 56.3°F13.5°C 54.8°F12.7°C 95% 3.1 mph S5.0 kmh S 6.0 mph9.7 kmh 29.65 in1004.1 mb 0.00 in0.0 mm 0.00 in0.0 mm 0.00 in0.0 mm
03:55 AM 55.9°F13.3°C 54.1°F12.3°C 94% 3.4 mph WSW5.5 kmh WSW 5.4 mph8.7 kmh 29.65 in1004.1 mb 0.00 in0.0 mm 0.00 in0.0 mm 0.00 in0.0 mm
03:50 AM 55.2°F12.9°C 53.2°F11.8°C 93% 4.4 mph SW7.1 kmh SW 7.6 mph12.2 kmh 29.65 in1004.1 mb 0.00 in0.0 mm 0.00 in0.0 mm 0.00 in0.0 mm
03:45 AM 54.8°F12.7°C 52.9°F11.6°C 93% 2.8 mph WSW4.5 kmh WSW 6.0 mph9.7 kmh 29.65 in1004.1 mb 0.00 in0.0 mm 0.00 in0.0 mm 0.00 in0.0 mm
03:40 AM 54.7°F12.6°C 53.3°F11.8°C 95% 2.3 mph WSW3.7 kmh WSW 6.0 mph9.7 kmh 29.65 in1004.1 mb 0.00 in0.0 mm 0.00 in0.0 mm 0.00 in0.0 mm
03:35 AM 54.7°F12.6°C 53.3°F11.8°C 95% 1.2 mph WSW1.9 kmh WSW 2.2 mph3.5 kmh 29.65 in1004.1 mb 0.00 in0.0 mm 0.00 in0.0 mm 0.00 in0.0 mm
03:30 AM 54.7°F12.6°C 53.1°F11.7°C 94% 1.6 mph NE2.6 kmh NE 4.5 mph7.2 kmh 29.65 in1004.1 mb 0.00 in0.0 mm 0.00 in0.0 mm 0.00 in0.0 mm
03:25 AM 54.9°F12.7°C 52.6°F11.4°C 92% 3.7 mph NE6.0 kmh NE 6.0 mph9.7 kmh 29.65 in1004.1 mb 0.00 in0.0 mm 0.00 in0.0 mm 0.00 in0.0 mm
03:20 AM 54.9°F12.7°C 52.3°F11.3°C 91% 1.2 mph E1.9 kmh E 4.5 mph7.2 kmh 29.65 in1004.1 mb 0.00 in0.0 mm 0.00 in0.0 mm 0.00 in0.0 mm
03:15 AM 54.9°F12.7°C 52.3°F11.3°C 91% 3.4 mph NNE5.5 kmh NNE 6.0 mph9.7 kmh 29.65 in1004.1 mb 0.00 in0.0 mm 0.00 in0.0 mm 0.00 in0.0 mm
03:10 AM 54.9°F12.7°C 52.3°F11.3°C 91% 3.8 mph NNE6.1 kmh NNE 6.0 mph9.7 kmh 29.65 in1004.1 mb 0.00 in0.0 mm 0.00 in0.0 mm 0.00 in0.0 mm
03:05 AM 55.2°F12.9°C 52.6°F11.4°C 91% 2.2 mph NNE3.5 kmh NNE 3.1 mph5.0 kmh 29.65 in1004.1 mb 0.00 in0.0 mm 0.00 in0.0 mm 0.00 in0.0 mm
03:00 AM 55.3°F12.9°C 52.7°F11.5°C 91% 1.7 mph NE2.7 kmh NE 2.2 mph3.5 kmh 29.65 in1004.1 mb 0.00 in0.0 mm 0.00 in0.0 mm 0.00 in0.0 mm
02:55 AM 55.5°F13.1°C 52.9°F11.6°C 91% 1.7 mph N2.7 kmh N 3.1 mph5.0 kmh 29.65 in1004.1 mb 0.00 in0.0 mm 0.00 in0.0 mm 0.00 in0.0 mm
02:50 AM 55.6°F13.1°C 53.0°F11.7°C 91% 1.5 mph SSE2.4 kmh SSE 3.1 mph5.0 kmh 29.65 in1004.1 mb 0.00 in0.0 mm 0.00 in0.0 mm 0.00 in0.0 mm
02:45 AM 55.7°F13.2°C 53.1°F11.7°C 91% 1.9 mph 3.1 kmh 3.8 mph6.1 kmh 29.65 in1004.1 mb 0.00 in0.0 mm 0.00 in0.0 mm 0.00 in0.0 mm
02:40 AM 55.8°F13.2°C 53.2°F11.8°C 91% 0.3 mph 0.5 kmh 1.6 mph2.6 kmh 29.65 in1004.1 mb 0.00 in0.0 mm 0.00 in0.0 mm 0.00 in0.0 mm
02:35 AM 56.0°F13.3°C 53.4°F11.9°C 91% 0.2 mph 0.3 kmh 1.6 mph2.6 kmh 29.65 in1004.1 mb 0.00 in0.0 mm 0.00 in0.0 mm 0.00 in0.0 mm
02:30 AM 56.1°F13.4°C 53.5°F11.9°C 91% 0.2 mph S0.3 kmh S 1.6 mph2.6 kmh 29.65 in1004.1 mb 0.00 in0.0 mm 0.00 in0.0 mm 0.00 in0.0 mm
02:25 AM 56.1°F13.4°C 53.5°F11.9°C 91% Calm Calm 0.7 mph1.1 kmh 29.65 in1004.1 mb 0.00 in0.0 mm 0.00 in0.0 mm 0.00 in0.0 mm
02:20 AM 56.1°F13.4°C 53.5°F11.9°C 91% 1.1 mph N1.8 kmh N 2.2 mph3.5 kmh 29.64 in1003.7 mb 0.00 in0.0 mm 0.00 in0.0 mm 0.00 in0.0 mm
02:15 AM 56.1°F13.4°C 53.5°F11.9°C 91% 1.1 mph N1.8 kmh N 2.2 mph3.5 kmh 29.64 in1003.7 mb 0.00 in0.0 mm 0.00 in0.0 mm 0.00 in0.0 mm
02:10 AM 56.1°F13.4°C 53.5°F11.9°C 91% 0.8 mph 1.3 kmh 3.1 mph5.0 kmh 29.65 in1004.1 mb 0.00 in0.0 mm 0.00 in0.0 mm 0.00 in0.0 mm
02:05 AM 56.3°F13.5°C 53.7°F12.1°C 91% Calm Calm -- 29.65 in1004.1 mb 0.00 in0.0 mm 0.00 in0.0 mm 0.00 in0.0 mm
02:00 AM 56.4°F13.6°C 53.8°F12.1°C 91% Calm Calm -- 29.65 in1004.1 mb 0.00 in0.0 mm 0.00 in0.0 mm 0.00 in0.0 mm
01:55 AM 56.5°F13.6°C 53.9°F12.2°C 91% Calm Calm -- 29.65 in1004.1 mb 0.00 in0.0 mm 0.00 in0.0 mm 0.00 in0.0 mm
01:50 AM 56.5°F13.6°C 53.9°F12.2°C 91% Calm Calm -- 29.65 in1004.1 mb 0.00 in0.0 mm 0.00 in0.0 mm 0.00 in0.0 mm
01:45 AM 56.7°F13.7°C 53.9°F12.2°C 90% Calm Calm 0.7 mph1.1 kmh 29.65 in1004.1 mb 0.00 in0.0 mm 0.00 in0.0 mm 0.00 in0.0 mm
01:40 AM 56.7°F13.7°C 53.8°F12.1°C 90% Calm Calm -- 29.65 in1004.1 mb 0.00 in0.0 mm 0.00 in0.0 mm 0.00 in0.0 mm
01:35 AM 56.7°F13.7°C 53.8°F12.1°C 90% 0.3 mph SW0.5 kmh SW 1.6 mph2.6 kmh 29.66 in1004.4 mb 0.00 in0.0 mm 0.00 in0.0 mm 0.00 in0.0 mm
01:30 AM 56.7°F13.7°C 53.8°F12.1°C 90% 1.3 mph SW2.1 kmh SW 2.2 mph3.5 kmh 29.66 in1004.4 mb 0.00 in0.0 mm 0.00 in0.0 mm 0.00 in0.0 mm
01:25 AM 56.8°F13.8°C 53.6°F12.0°C 89% 1.0 mph SW1.6 kmh SW 2.2 mph3.5 kmh 29.66 in1004.4 mb 0.00 in0.0 mm 0.00 in0.0 mm 0.00 in0.0 mm
01:20 AM 56.8°F13.8°C 53.6°F12.0°C 89% Calm Calm 0.7 mph1.1 kmh 29.66 in1004.4 mb 0.00 in0.0 mm 0.00 in0.0 mm 0.00 in0.0 mm
01:15 AM 56.7°F13.7°C 53.3°F11.8°C 88% Calm Calm -- 29.66 in1004.4 mb 0.00 in0.0 mm 0.00 in0.0 mm 0.00 in0.0 mm
01:10 AM 56.9°F13.8°C 53.4°F11.9°C 88% Calm Calm -- 29.66 in1004.4 mb 0.00 in0.0 mm 0.00 in0.0 mm 0.00 in0.0 mm
01:05 AM 57.0°F13.9°C 53.5°F11.9°C 88% Calm Calm -- 29.66 in1004.4 mb 0.00 in0.0 mm 0.00 in0.0 mm 0.00 in0.0 mm
01:00 AM 57.0°F13.9°C 53.5°F11.9°C 88% Calm Calm 0.7 mph1.1 kmh 29.67 in1004.7 mb 0.00 in0.0 mm 0.00 in0.0 mm 0.00 in0.0 mm
12:55 AM 57.2°F14.0°C 53.7°F12.1°C 88% 0.2 mph SW0.3 kmh SW 1.6 mph2.6 kmh 29.66 in1004.4 mb 0.00 in0.0 mm 0.00 in0.0 mm 0.00 in0.0 mm
12:50 AM 57.5°F14.2°C 53.9°F12.2°C 88% 0.3 mph SW0.5 kmh SW 1.6 mph2.6 kmh 29.67 in1004.7 mb 0.00 in0.0 mm 0.00 in0.0 mm 0.00 in0.0 mm
12:45 AM 57.6°F14.2°C 54.1°F12.3°C 88% 2.2 mph NNE3.5 kmh NNE 3.8 mph6.1 kmh 29.67 in1004.7 mb 0.00 in0.0 mm 0.00 in0.0 mm 0.00 in0.0 mm
12:40 AM 57.8°F14.3°C 54.3°F12.4°C 88% 1.2 mph NE1.9 kmh NE 3.1 mph5.0 kmh 29.67 in1004.7 mb 0.00 in0.0 mm 0.00 in0.0 mm 0.00 in0.0 mm
12:35 AM 58.0°F14.4°C 54.7°F12.6°C 89% 0.8 mph NNE1.3 kmh NNE 3.1 mph5.0 kmh 29.67 in1004.7 mb 0.00 in0.0 mm 0.00 in0.0 mm 0.00 in0.0 mm
12:30 AM 58.2°F14.6°C 54.9°F12.7°C 89% Calm Calm -- 29.67 in1004.7 mb 0.00 in0.0 mm 0.00 in0.0 mm 0.00 in0.0 mm
12:25 AM 58.3°F14.6°C 55.1°F12.8°C 89% 0.2 mph S0.3 kmh S 1.6 mph2.6 kmh 29.68 in1005.1 mb 0.00 in0.0 mm 0.00 in0.0 mm 0.00 in0.0 mm
12:20 AM 58.5°F14.7°C 55.2°F12.9°C 89% 0.6 mph NW1.0 kmh NW 2.2 mph3.5 kmh 29.68 in1005.1 mb 0.00 in0.0 mm 0.00 in0.0 mm 0.00 in0.0 mm
12:15 AM 58.6°F14.8°C 55.4°F13.0°C 89% 2.0 mph 3.2 kmh 3.1 mph5.0 kmh 29.68 in1005.1 mb 0.00 in0.0 mm 0.00 in0.0 mm 0.00 in0.0 mm
12:10 AM 58.8°F14.9°C 55.7°F13.2°C 89% 2.1 mph 3.4 kmh 3.1 mph5.0 kmh 29.68 in1005.1 mb 0.00 in0.0 mm 0.00 in0.0 mm 0.00 in0.0 mm
12:05 AM 58.9°F14.9°C 55.9°F13.3°C 90% 1.9 mph 3.1 kmh 3.1 mph5.0 kmh 29.68 in1005.1 mb 0.00 in0.0 mm 0.00 in0.0 mm 0.00 in0.0 mm
12:00 AM 59.0°F15.0°C 56.1°F13.4°C 90% 1.7 mph NE2.7 kmh NE 3.1 mph5.0 kmh 29.68 in1005.1 mb 0.00 in0.0 mm 0.00 in0.0 mm 0.00 in0.0 mm